Time;durP1;ratioP1;P1;durP2;ratioP2;P2;SDS_P1;SDS_P2;PMS_P1;PMS_P2;Temp;Humidity;BMP_temperature;BMP_pressure;BME280_temperature;BME280_humidity;BME280_pressure;Samples;Min_cycle;Max_cycle;Signal;HPM_P1;HPM_P2
2022/03/21 00:01:30;;;;;;;54.88;22.00;;;;;;;0.31;38.86;102566.08;2044805;85;20172;-80
2022/03/21 00:04:32;;;;;;;48.73;21.02;;;;;;;0.23;38.80;102564.11;2044103;85;21553;-79
2022/03/21 00:07:33;;;;;;;49.15;21.42;;;;;;;0.19;38.94;102565.08;2042277;85;21520;-77
2022/03/21 00:10:34;;;;;;;;;;;;;;;0.16;39.05;102559.48;2051111;85;21062;-78
2022/03/21 00:13:36;;;;;;;42.55;19.75;;;;;;;0.15;39.15;102565.61;2042354;85;20112;-78
2022/03/21 00:16:38;;;;;;;49.95;20.25;;;;;;;0.13;39.25;102568.70;2045833;85;21035;-78
2022/03/21 00:19:40;;;;;;;41.85;20.23;;;;;;;0.12;39.43;102563.08;2052587;84;21067;-82
2022/03/21 00:22:41;;;;;;;48.95;21.65;;;;;;;0.06;39.54;102566.28;2069296;84;21082;-78
2022/03/21 00:25:42;;;;;;;;;;;;;;;0.02;39.72;102571.19;2072225;84;21007;-79
2022/03/21 00:28:43;;;;;;;56.18;21.62;;;;;;;0.00;39.89;102567.33;2069842;84;20272;-81
2022/03/21 00:31:44;;;;;;;42.23;19.37;;;;;;;-0.06;40.11;102560.93;2065006;84;21027;-80
2022/03/21 00:34:46;;;;;;;45.55;21.82;;;;;;;-0.11;40.28;102565.44;2071059;84;22101;-78
2022/03/21 00:37:48;;;;;;;47.83;22.10;;;;;;;-0.17;40.44;102562.53;2068893;84;21062;-80
2022/03/21 00:40:50;;;;;;;50.00;21.02;;;;;;;-0.21;40.76;102562.17;2077371;84;21095;-78
2022/03/21 00:43:52;;;;;;;48.98;22.22;;;;;;;-0.23;40.83;102560.05;2068374;84;21013;-77
2022/03/21 00:46:53;;;;;;;42.10;20.17;;;;;;;-0.21;40.87;102556.95;2067462;84;21049;-80
2022/03/21 00:49:54;;;;;;;;;;;;;;;-0.18;40.99;102558.64;2077167;84;21076;-79
2022/03/21 00:52:57;;;;;;;48.28;21.73;;;;;;;-0.16;41.17;102555.09;2069560;84;20170;-79
2022/03/21 00:55:58;;;;;;;53.95;21.97;;;;;;;-0.18;41.41;102558.19;2072307;84;21454;-80
2022/03/21 00:59:00;;;;;;;;;;;;;;;-0.15;41.52;102546.81;2067479;84;21088;-80
2022/03/21 01:02:00;;;;;;;;;;;;;;;-0.16;41.65;102551.18;2075491;84;20134;-79
2022/03/21 01:05:03;;;;;;;50.90;23.47;;;;;;;-0.15;41.84;102540.29;2074726;83;20228;-78
2022/03/21 01:08:05;;;;;;;46.55;21.68;;;;;;;-0.18;42.21;102542.52;2071117;84;21028;-77
2022/03/21 01:11:06;;;;;;;53.60;24.80;;;;;;;-0.20;42.40;102550.83;2073648;84;21052;-78
2022/03/21 01:14:07;;;;;;;59.00;24.35;;;;;;;-0.24;42.45;102545.30;2064625;84;21059;-80
2022/03/21 01:17:08;;;;;;;;;;;;;;;-0.33;42.55;102545.08;2069104;84;21526;-76
2022/03/21 01:20:12;;;;;;;55.95;25.27;;;;;;;-0.41;42.72;102545.70;2071313;83;20231;-78
2022/03/21 01:23:13;;;;;;;55.23;24.65;;;;;;;-0.50;42.81;102541.56;2083023;84;21712;-79
2022/03/21 01:26:14;;;;;;;;;;;;;;;-0.56;43.11;102540.87;2077983;84;21108;-78
2022/03/21 01:29:15;;;;;;;49.25;25.62;;;;;;;-0.58;43.31;102546.11;2077364;84;20149;-80
2022/03/21 01:32:16;;;;;;;82.00;35.23;;;;;;;-0.64;43.67;102534.97;2073916;84;21572;-76
2022/03/21 01:35:18;;;;;;;;;;;;;;;-0.72;43.80;102536.44;2083493;84;21345;-78
2022/03/21 01:38:19;;;;;;;62.10;27.37;;;;;;;-0.77;43.81;102537.84;2082465;84;20162;-78
2022/03/21 01:41:20;;;;;;;74.12;31.70;;;;;;;-0.82;43.75;102529.26;2085756;84;21062;-81
2022/03/21 01:44:21;;;;;;;;;;;;;;;-0.83;43.79;102540.59;2086814;84;20990;-79
2022/03/21 01:47:24;;;;;;;56.42;26.48;;;;;;;-0.82;43.89;102530.56;2086155;84;20164;-77
2022/03/21 01:50:25;;;;;;;52.88;24.52;;;;;;;-0.83;43.89;102521.48;2089618;84;21063;-79
2022/03/21 01:56:47;;;;;;;48.58;22.40;;;;;;;-0.77;44.32;102521.34;2079510;84;20998;-78
2022/03/21 01:59:49;;;;;;;50.92;23.57;;;;;;;-0.75;44.40;102524.33;2082505;84;21041;-80
2022/03/21 02:02:51;;;;;;;50.83;24.50;;;;;;;-0.71;44.67;102526.41;2086783;84;20983;-80
2022/03/21 02:05:52;;;;;;;48.40;22.07;;;;;;;-0.70;44.77;102521.63;2081433;84;21033;-75
2022/03/21 02:08:53;;;;;;;;;;;;;;;-0.68;44.85;102509.39;2076432;84;21395;-77
2022/03/21 02:11:56;;;;;;;51.15;22.77;;;;;;;-0.67;44.67;102513.73;2080993;84;20201;-80
2022/03/21 02:14:57;;;;;;;49.58;22.62;;;;;;;-0.69;44.71;102509.84;2085779;84;21467;-77
2022/03/21 02:18:01;;;;;;;46.53;21.87;;;;;;;-0.73;44.99;102512.58;2081684;84;21602;-77
2022/03/21 02:21:04;;;;;;;44.35;21.62;;;;;;;-0.73;45.13;102513.88;2088000;84;21034;-80
2022/03/21 02:24:22;;;;;;;52.33;24.07;;;;;;;-0.76;45.32;102505.68;2084039;84;21543;-78
2022/03/21 02:27:27;;;;;;;47.83;22.22;;;;;;;-0.75;45.15;102511.75;2085956;84;21030;-81
2022/03/21 02:30:32;;;;;;;48.23;23.87;;;;;;;-0.76;45.27;102508.70;2086707;84;21098;-79
2022/03/21 02:33:33;;;;;;;48.83;22.70;;;;;;;-0.76;45.36;102499.58;2087091;84;21069;-79
2022/03/21 02:36:41;;;;;;;38.70;18.62;;;;;;;-0.78;45.48;102508.77;2050616;84;20984;-78
2022/03/21 02:39:46;;;;;;;45.75;22.27;;;;;;;-0.80;45.74;102515.75;2084414;84;21343;-80
2022/03/21 02:42:47;;;;;;;45.23;21.30;;;;;;;-0.85;45.65;102512.84;2080946;84;22642;-79
2022/03/21 02:45:48;;;;;;;44.55;22.07;;;;;;;-0.89;45.90;102516.42;2083968;84;21024;-80
2022/03/21 02:48:52;;;;;;;;;;;;;;;-0.93;46.04;102509.09;2085709;84;21073;-78
2022/03/21 02:51:55;;;;;;;49.88;23.22;;;;;;;-0.97;46.23;102514.83;2085819;84;20140;-78
2022/03/21 02:54:56;;;;;;;41.90;20.57;;;;;;;-0.99;46.24;102518.36;2080856;83;21531;-80
2022/03/21 02:57:57;;;;;;;47.50;21.55;;;;;;;-0.98;46.19;102520.95;2088350;84;21010;-79
2022/03/21 03:01:12;;;;;;;44.33;22.00;;;;;;;-0.97;46.27;102520.04;2085704;84;21017;-78
2022/03/21 03:04:13;;;;;;;45.30;20.50;;;;;;;-0.95;46.11;102519.57;2086471;83;21045;-79
2022/03/21 03:07:14;;;;;;;43.78;21.12;;;;;;;-0.93;46.12;102519.52;2078924;84;21022;-79
2022/03/21 03:10:16;;;;;;;41.98;20.88;;;;;;;-0.94;46.16;102523.88;2083401;84;21015;-78
2022/03/21 03:13:17;;;;;;;46.18;21.00;;;;;;;-0.95;46.18;102527.39;2082778;84;21056;-76
2022/03/21 03:16:20;;;;;;;44.77;22.45;;;;;;;-0.99;46.38;102525.72;2078781;84;21068;-79
2022/03/21 03:19:21;;;;;;;;;;;;;;;-1.05;46.51;102529.77;2082723;84;21025;-79
2022/03/21 03:22:24;;;;;;;46.48;21.82;;;;;;;-1.11;46.54;102524.70;2070617;83;20529;-78
2022/03/21 03:25:25;;;;;;;44.20;20.88;;;;;;;-1.19;46.75;102522.25;2062625;84;21484;-78
2022/03/21 03:28:27;;;;;;;46.25;20.48;;;;;;;-1.28;47.08;102528.97;2073509;84;21055;-78
2022/03/21 03:31:29;;;;;;;48.45;21.65;;;;;;;-1.39;47.66;102532.23;2064101;84;21027;-77
2022/03/21 03:34:33;;;;;;;51.02;21.48;;;;;;;-1.52;47.93;102526.42;2073933;84;21074;-80
2022/03/21 03:37:35;;;;;;;44.33;21.33;;;;;;;-1.59;48.13;102527.42;2065096;84;21624;-79
2022/03/21 03:40:36;;;;;;;51.50;23.22;;;;;;;-1.66;48.47;102529.71;2069483;84;21509;-77
2022/03/21 03:43:38;;;;;;;48.65;23.32;;;;;;;-1.74;48.30;102526.42;2071870;83;21073;-80
2022/03/21 03:46:39;;;;;;;43.28;22.07;;;;;;;-1.78;48.35;102533.41;2064305;84;21022;-77
2022/03/21 03:49:40;;;;;;;;;;;;;;;-1.81;48.53;102533.02;2072259;84;21035;-81
2022/03/21 03:52:45;;;;;;;50.15;22.98;;;;;;;-1.83;48.63;102533.94;2064859;84;20177;-81
2022/03/21 03:55:44;;;;;;;53.48;23.12;;;;;;;-1.84;48.84;102526.58;2070465;84;21054;-79
2022/03/21 03:58:46;;;;;;;50.83;23.12;;;;;;;-1.78;48.67;102527.36;2070629;84;21152;-78
2022/03/21 04:01:46;;;;;;;44.70;22.25;;;;;;;-1.74;48.68;102532.94;2070816;84;21030;-79
2022/03/21 04:04:48;;;;;;;;;;;;;;;-1.76;48.77;102522.98;2069185;84;21013;-79
2022/03/21 04:07:50;;;;;;;55.95;26.95;;;;;;;-1.76;48.96;102531.65;2060332;84;20141;-78
2022/03/21 04:10:51;;;;;;;48.73;23.07;;;;;;;-1.83;49.12;102542.63;2069043;84;20997;-77
2022/03/21 04:13:53;;;;;;;52.58;24.92;;;;;;;-1.92;49.21;102537.56;2072032;84;20969;-79
2022/03/21 04:16:54;;;;;;;51.10;25.05;;;;;;;-1.96;49.26;102532.02;2072868;84;21007;-80
2022/03/21 04:19:55;;;;;;;48.05;24.92;;;;;;;-1.98;49.32;102532.92;2064915;84;21053;-79
2022/03/21 04:22:57;;;;;;;53.23;24.02;;;;;;;-2.00;49.53;102526.88;2083967;84;21018;-79
2022/03/21 04:25:58;;;;;;;47.95;24.95;;;;;;;-2.05;49.60;102526.98;2081714;84;21053;-77
2022/03/21 04:29:02;;;;;;;56.83;27.37;;;;;;;-2.11;50.06;102525.77;2076076;83;21025;-78
2022/03/21 04:32:03;;;;;;;49.90;24.05;;;;;;;-2.20;50.25;102532.43;2075795;84;21026;-78
2022/03/21 04:35:06;;;;;;;50.70;22.13;;;;;;;-2.35;50.42;102537.00;2078349;84;21069;-79
2022/03/21 04:38:16;;;;;;;47.93;23.25;;;;;;;-2.46;50.61;102538.92;2076865;84;21036;-81
2022/03/21 04:41:17;;;;;;;47.03;22.67;;;;;;;-2.56;50.82;102544.72;2073833;84;21568;-77
2022/03/21 04:44:19;;;;;;;51.80;22.75;;;;;;;-2.65;51.06;102545.27;2081068;83;21065;-77
2022/03/21 04:47:21;;;;;;;48.60;23.25;;;;;;;-2.78;51.11;102545.91;2069961;84;20970;-78
2022/03/21 04:50:22;;;;;;;52.17;22.90;;;;;;;-2.79;51.54;102547.66;2077083;84;21012;-79
2022/03/21 04:53:23;;;;;;;;;;;;;;;-2.79;51.87;102550.26;2081485;84;21014;-82
2022/03/21 04:56:25;;;;;;;51.48;23.60;;;;;;;-2.82;51.90;102554.17;2077677;84;20166;-79
2022/03/21 04:59:26;;;;;;;54.30;24.85;;;;;;;-2.86;51.85;102559.00;2085656;84;21057;-78
2022/03/21 05:02:28;;;;;;;49.13;24.87;;;;;;;-2.85;52.01;102556.81;2076355;84;21061;-80
2022/03/21 05:05:29;;;;;;;46.70;20.97;;;;;;;-2.84;52.01;102558.55;2084857;83;21513;-80
2022/03/21 05:08:30;;;;;;;50.78;24.40;;;;;;;-2.81;52.13;102561.55;2080408;84;20962;-79
2022/03/21 05:11:32;;;;;;;48.50;24.37;;;;;;;-2.79;52.16;102563.25;2087838;83;21026;-79
2022/03/21 05:14:33;;;;;;;50.05;25.08;;;;;;;-2.73;52.05;102567.05;2070649;83;21496;-77
2022/03/21 05:17:35;;;;;;;50.95;23.75;;;;;;;-2.60;52.01;102553.42;2079638;83;21006;-77
2022/03/21 05:20:37;;;;;;;51.13;25.48;;;;;;;-2.46;51.97;102564.06;2079484;84;20959;-79
2022/03/21 05:36:57;;;;;;;47.65;23.30;;;;;;;-0.42;50.68;102556.16;2080738;84;21034;-82
2022/03/21 05:40:41;;;;;;;60.33;27.52;;;;;;;0.07;50.16;102564.95;2088406;84;20986;-79
2022/03/21 05:43:04;;;;;;;58.68;27.37;;;;;;;0.47;49.59;102565.65;2067848;84;21037;-82
2022/03/21 05:46:05;;;;;;;56.42;28.07;;;;;;;0.88;49.42;102565.34;2082734;84;21026;-81
2022/03/21 05:49:07;;;;;;;50.45;26.90;;;;;;;1.43;49.19;102564.57;2083092;84;20967;-81
2022/03/21 05:52:08;;;;;;;49.18;25.32;;;;;;;1.90;48.42;102565.66;2092644;84;21082;-84
2022/03/21 05:55:09;;;;;;;55.35;26.93;;;;;;;2.03;47.43;102571.35;2091776;84;21041;-86
2022/03/21 05:58:10;;;;;;;53.95;26.42;;;;;;;2.11;47.65;102571.95;2079208;84;21604;-83
2022/03/21 06:01:12;;;;;;;48.95;26.23;;;;;;;2.23;47.39;102571.52;2055860;84;21333;-84
2022/03/21 06:04:13;;;;;;;54.08;26.05;;;;;;;2.48;47.17;102574.59;2083444;84;20982;-84
2022/03/21 06:07:16;;;;;;;;;;;;;;;2.69;46.99;102572.95;2083134;84;21043;-82
2022/03/21 06:10:17;;;;;;;47.80;27.00;;;;;;;3.12;46.63;102569.56;2082885;84;20144;-83
2022/03/21 06:13:18;;;;;;;53.40;25.88;;;;;;;3.51;46.46;102570.24;2073643;84;20990;-79
2022/03/21 06:16:19;;;;;;;52.78;25.92;;;;;;;3.95;46.26;102568.05;2085676;84;21001;-79
2022/03/21 06:19:21;;;;;;;53.70;28.98;;;;;;;4.44;45.66;102575.98;2089285;84;21079;-81
2022/03/21 06:22:22;;;;;;;52.70;27.27;;;;;;;4.77;45.34;102576.73;2075421;84;20998;-81
2022/03/21 06:25:23;;;;;;;50.40;25.65;;;;;;;5.06;44.37;102578.49;2068086;84;21061;-80
2022/03/21 06:28:27;;;;;;;48.23;25.30;;;;;;;5.14;44.23;102571.95;2069397;84;21038;-80
2022/03/21 06:31:28;;;;;;;48.15;26.60;;;;;;;5.51;44.04;102577.25;2065858;84;21058;-81
2022/03/21 06:34:29;;;;;;;48.95;26.82;;;;;;;5.57;43.41;102579.58;2068994;84;21084;-81
2022/03/21 06:37:32;;;;;;;51.02;27.75;;;;;;;5.49;43.01;102586.99;2073329;84;21048;-80
2022/03/21 06:40:34;;;;;;;52.08;27.37;;;;;;;5.61;43.17;102587.73;2074495;84;20994;-80
2022/03/21 06:43:35;;;;;;;49.35;25.90;;;;;;;5.67;42.69;102590.06;2073392;84;21664;-81
2022/03/21 06:46:35;;;;;;;;;;;;;;;5.78;42.36;102590.88;2082946;84;21027;-81
2022/03/21 06:49:37;;;;;;;49.08;26.12;;;;;;;6.08;42.33;102587.18;2076453;84;20441;-82
2022/03/21 06:52:39;;;;;;;52.23;26.90;;;;;;;6.18;41.81;102589.75;2080642;84;21043;-81
2022/03/21 06:55:41;;;;;;;51.45;26.20;;;;;;;6.21;41.41;102588.27;2071682;84;21003;-82
2022/03/21 06:58:42;;;;;;;50.75;26.97;;;;;;;6.44;42.02;102587.09;2072823;84;21067;-80
2022/03/21 07:01:43;;;;;;;47.30;27.30;;;;;;;6.69;40.89;102593.25;2077886;83;21517;-81
2022/03/21 07:04:44;;;;;;;49.35;27.02;;;;;;;6.78;40.60;102593.70;2071029;84;21056;-82
2022/03/21 07:07:47;;;;;;;48.08;26.35;;;;;;;6.72;40.47;102603.64;2070898;83;21487;-81
2022/03/21 07:10:48;;;;;;;51.40;26.10;;;;;;;6.80;39.71;102601.08;2074414;84;22541;-82
2022/03/21 07:13:49;;;;;;;49.73;27.93;;;;;;;6.87;39.79;102609.03;2050391;84;21047;-82
2022/03/21 07:16:51;;;;;;;50.65;25.77;;;;;;;7.03;39.93;102606.44;2067241;84;20990;-81
2022/03/21 07:19:52;;;;;;;49.25;26.17;;;;;;;7.19;39.66;102605.98;2074184;84;20969;-80
2022/03/21 07:22:57;;;;;;;46.77;23.90;;;;;;;7.40;39.80;102609.22;2092510;83;21069;-81
2022/03/21 07:25:59;;;;;;;48.28;26.10;;;;;;;7.61;38.97;102611.99;2094056;83;21029;-82
2022/03/21 07:29:01;;;;;;;43.52;24.70;;;;;;;7.57;38.82;102605.19;2102818;83;20997;-80
2022/03/21 07:32:02;;;;;;;43.98;24.47;;;;;;;7.80;39.07;102602.55;2104741;83;21033;-81
2022/03/21 07:35:04;;;;;;;43.30;24.85;;;;;;;8.06;38.56;102605.00;2102180;83;21575;-83
2022/03/21 07:38:07;;;;;;;38.08;22.87;;;;;;;8.20;38.32;102610.80;2105729;83;21453;-81
2022/03/21 07:41:08;;;;;;;48.52;23.67;;;;;;;8.26;37.73;102614.41;2095644;83;21053;-83
2022/03/21 07:44:10;;;;;;;45.83;23.80;;;;;;;8.40;37.79;102607.00;2092833;83;21085;-81
2022/03/21 07:47:18;;;;;;;37.28;22.13;;;;;;;8.69;37.90;102611.00;2095188;83;21031;-82
2022/03/21 07:50:20;;;;;;;38.65;22.62;;;;;;;8.97;37.39;102606.17;2102124;83;21345;-81
2022/03/21 07:53:22;;;;;;;35.45;21.60;;;;;;;9.29;37.34;102610.79;2096686;83;21012;-81
2022/03/21 07:56:23;;;;;;;32.40;19.07;;;;;;;9.63;37.06;102606.81;2096183;83;21001;-81
2022/03/21 07:59:25;;;;;;;32.38;19.77;;;;;;;10.16;36.35;102602.86;2089225;83;21664;-81
2022/03/21 08:02:27;;;;;;;28.38;17.37;;;;;;;10.41;35.43;102599.91;2098328;83;21063;-82
2022/03/21 08:05:28;;;;;;;32.60;19.85;;;;;;;10.55;34.44;102607.77;2099421;83;21501;-81
2022/03/21 08:08:30;;;;;;;32.70;19.32;;;;;;;10.62;34.25;102604.23;2097073;83;21069;-82
2022/03/21 08:11:31;;;;;;;30.85;19.30;;;;;;;10.85;34.25;102605.27;2101967;83;21021;-81
2022/03/21 08:14:32;;;;;;;30.35;18.17;;;;;;;11.08;33.81;102604.48;2095605;83;20990;-82
2022/03/21 08:17:36;;;;;;;29.55;17.73;;;;;;;11.08;32.20;102612.45;2091707;83;21587;-82
2022/03/21 08:20:38;;;;;;;25.40;15.48;;;;;;;10.96;31.74;102599.56;2068745;83;21158;-81
2022/03/21 08:23:39;;;;;;;23.45;13.30;;;;;;;10.93;30.47;102606.42;2087367;83;21021;-82
2022/03/21 08:26:40;;;;;;;20.35;13.50;;;;;;;10.85;30.55;102607.92;2098055;83;22094;-81
2022/03/21 08:29:42;;;;;;;23.00;14.03;;;;;;;10.80;29.88;102610.05;2094037;83;21018;-81
2022/03/21 08:32:46;;;;;;;19.37;13.30;;;;;;;10.60;29.83;102602.98;2090026;83;21069;-82
2022/03/21 08:35:47;;;;;;;22.52;13.55;;;;;;;10.73;30.33;102601.67;2099052;83;21006;-82
2022/03/21 08:38:49;;;;;;;22.55;13.98;;;;;;;10.79;29.91;102601.72;2090898;83;21061;-82
2022/03/21 08:41:52;;;;;;;23.22;13.60;;;;;;;10.90;29.89;102588.53;2095273;83;21008;-80
2022/03/21 08:44:53;;;;;;;18.92;12.35;;;;;;;10.97;29.24;102597.75;2115072;83;21075;-81
2022/03/21 08:47:54;;;;;;;21.37;13.72;;;;;;;10.92;28.73;102598.06;2153028;81;21034;-81
2022/03/21 08:50:55;;;;;;;21.10;13.15;;;;;;;10.87;28.75;102588.72;2157494;81;21548;-80
2022/03/21 08:53:56;;;;;;;23.85;13.45;;;;;;;10.82;28.37;102589.55;2153668;81;20946;-80
2022/03/21 08:56:57;;;;;;;23.42;14.23;;;;;;;10.94;28.49;102586.02;2152822;81;20996;-82
2022/03/21 08:59:58;;;;;;;20.43;13.48;;;;;;;11.11;28.30;102586.98;2159957;81;21001;-81
2022/03/21 09:03:00;;;;;;;23.15;13.58;;;;;;;11.18;27.94;102578.95;2157095;81;21041;-82
2022/03/21 09:06:01;;;;;;;20.80;12.82;;;;;;;11.17;27.00;102575.06;2151915;81;21028;-82
2022/03/21 09:09:02;;;;;;;17.85;11.88;;;;;;;11.26;27.29;102575.72;2154600;81;21021;-81
2022/03/21 09:12:04;;;;;;;20.68;12.75;;;;;;;11.27;27.18;102574.78;2161710;81;21032;-82
2022/03/21 09:15:06;;;;;;;18.40;12.65;;;;;;;11.48;27.54;102576.82;2154837;81;21021;-82
2022/03/21 09:18:08;;;;;;;18.95;12.73;;;;;;;11.57;27.43;102564.16;2152643;81;21543;-82
2022/03/21 09:21:10;;;;;;;17.27;11.75;;;;;;;11.74;27.38;102574.88;2157353;80;21070;-81
2022/03/21 09:24:12;;;;;;;21.35;12.63;;;;;;;11.71;26.88;102565.80;2167458;80;20986;-81
2022/03/21 09:27:13;;;;;;;19.15;12.73;;;;;;;11.67;26.35;102562.05;2158451;81;21030;-81
2022/03/21 09:30:14;;;;;;;17.48;11.63;;;;;;;11.82;25.93;102560.53;2153602;81;20999;-81
2022/03/21 09:33:15;;;;;;;20.27;12.82;;;;;;;11.75;26.86;102565.96;2152068;81;21461;-81
2022/03/21 09:36:17;;;;;;;17.98;11.88;;;;;;;11.88;25.96;102557.44;2159670;80;21034;-82
2022/03/21 09:39:18;;;;;;;17.55;10.80;;;;;;;12.05;25.87;102562.80;2160896;81;20978;-82
2022/03/21 09:42:20;;;;;;;15.75;11.57;;;;;;;12.11;26.04;102563.70;2159160;80;21554;-82
2022/03/21 09:45:22;;;;;;;21.73;12.13;;;;;;;12.19;26.31;102557.77;2157302;80;21038;-82
2022/03/21 09:48:26;;;;;;;15.70;10.85;;;;;;;12.29;25.96;102551.61;2160690;81;21010;-81
2022/03/21 09:51:29;;;;;;;18.37;11.75;;;;;;;12.60;25.67;102551.05;2157045;81;21018;-82
2022/03/21 09:54:32;;;;;;;15.83;9.93;;;;;;;12.74;25.83;102544.98;2156474;81;21536;-82
2022/03/21 09:57:34;;;;;;;15.75;10.32;;;;;;;12.78;25.46;102553.56;2149949;80;21085;-82
2022/03/21 10:00:43;;;;;;;14.55;9.35;;;;;;;12.90;24.38;102544.62;2148858;81;21497;-82
2022/03/21 10:03:44;;;;;;;19.42;10.48;;;;;;;12.82;23.37;102551.04;2153980;81;21011;-82
2022/03/21 10:06:49;;;;;;;17.10;11.38;;;;;;;12.75;23.18;102545.36;2154865;81;20990;-82
2022/03/21 10:10:08;;;;;;;16.30;10.28;;;;;;;12.71;23.91;102544.38;2153607;81;21509;-82
2022/03/21 10:13:10;;;;;;;18.37;9.45;;;;;;;12.71;23.43;102538.56;2158870;81;21012;-81
2022/03/21 10:16:20;;;;;;;14.78;9.20;;;;;;;12.64;23.47;102545.83;2161475;81;20981;-82
2022/03/21 10:19:22;;;;;;;;;;;;;;;12.47;22.52;102540.03;2157667;81;20983;-82
2022/03/21 10:22:43;;;;;;;15.48;9.50;;;;;;;12.47;23.14;102543.16;2152603;80;20162;-82
2022/03/21 10:25:43;;;;;;;13.30;9.43;;;;;;;12.61;23.43;102531.42;2133405;82;21014;-82
2022/03/21 10:28:44;;;;;;;14.73;10.03;;;;;;;12.67;22.98;102529.14;2136347;82;20974;-82
2022/03/21 10:31:50;;;;;;;16.23;9.43;;;;;;;12.68;23.42;102526.83;2139842;81;21025;-81
2022/03/21 10:35:02;;;;;;;13.20;9.20;;;;;;;12.72;23.11;102522.09;2135764;80;20963;-82
2022/03/21 10:38:04;;;;;;;13.70;9.63;;;;;;;12.82;23.62;102531.06;2138598;82;20989;-82
2022/03/21 10:41:09;;;;;;;14.15;9.53;;;;;;;12.78;23.09;102521.59;2138026;82;22462;-82
2022/03/21 10:44:10;;;;;;;13.48;10.00;;;;;;;12.75;23.63;102511.19;2137821;82;21022;-82
2022/03/21 10:47:11;;;;;;;20.12;11.45;;;;;;;12.92;23.00;102505.38;2136881;81;21044;-80
2022/03/21 10:50:13;;;;;;;17.57;10.30;;;;;;;13.14;23.01;102508.94;2134563;82;21438;-82
2022/03/21 10:53:32;;;;;;;14.40;8.88;;;;;;;13.00;22.98;102495.41;2135606;82;21070;-82
2022/03/21 10:56:38;;;;;;;15.08;9.98;;;;;;;12.86;23.31;102494.34;2137025;82;21104;-82
2022/03/21 10:59:40;;;;;;;15.53;10.20;;;;;;;13.03;22.71;102488.98;2140273;82;21018;-81
2022/03/21 11:02:51;;;;;;;13.43;9.38;;;;;;;13.09;21.90;102492.47;2134501;80;20993;-82
2022/03/21 11:05:53;;;;;;;15.93;9.98;;;;;;;13.04;22.42;102499.53;2132744;82;21070;-81
2022/03/21 11:08:55;;;;;;;14.95;9.75;;;;;;;13.04;22.22;102491.54;2139963;80;21025;-82
2022/03/21 11:11:57;;;;;;;17.15;10.13;;;;;;;12.96;22.34;102488.16;2135783;82;21170;-82
2022/03/21 11:14:59;;;;;;;15.88;9.90;;;;;;;13.10;22.62;102496.85;2143256;81;21013;-81
2022/03/21 11:18:01;;;;;;;14.25;9.90;;;;;;;12.96;22.43;102479.32;2137262;80;21585;-82
2022/03/21 11:21:03;;;;;;;16.93;10.13;;;;;;;13.02;22.47;102482.81;2134885;82;21022;-82
2022/03/21 11:24:05;;;;;;;14.78;10.85;;;;;;;12.90;22.44;102482.00;2122874;82;21011;-83
2022/03/21 11:27:15;;;;;;;15.00;10.05;;;;;;;12.84;21.90;102472.30;2103842;82;21050;-82
2022/03/21 11:30:38;;;;;;;15.08;10.32;;;;;;;12.89;22.71;102480.28;2112109;82;21028;-82
2022/03/21 11:33:54;;;;;;;20.48;10.28;;;;;;;12.92;22.36;102476.06;2116480;82;20987;-82
2022/03/21 11:36:58;;;;;;;18.77;10.95;;;;;;;12.81;22.68;102457.90;2116324;82;21038;-83
2022/03/21 11:40:28;;;;;;;16.40;10.28;;;;;;;12.77;22.57;102455.98;2121301;82;21005;-82
2022/03/21 11:43:30;;;;;;;15.90;10.20;;;;;;;12.78;22.54;102462.98;2115479;82;21069;-82
2022/03/21 11:46:34;;;;;;;17.95;11.20;;;;;;;12.96;22.86;102445.52;2111996;82;21533;-82
2022/03/21 11:49:42;;;;;;;14.87;9.88;;;;;;;13.18;22.62;102447.77;2116440;82;21013;-82
2022/03/21 11:53:12;;;;;;;17.07;11.65;;;;;;;13.14;21.64;102444.97;2110416;82;21082;-81
2022/03/21 11:56:20;;;;;;;15.58;10.88;;;;;;;13.01;21.89;102446.00;2111645;82;21014;-81
2022/03/21 11:59:39;;;;;;;16.55;10.90;;;;;;;13.03;21.35;102438.34;2110626;82;21548;-82
2022/03/21 12:02:46;;;;;;;17.75;12.05;;;;;;;13.14;22.18;102435.64;2106921;82;21006;-81
2022/03/21 12:05:50;;;;;;;17.25;10.08;;;;;;;13.30;22.63;102424.59;2117000;82;21010;-81
2022/03/21 12:09:01;;;;;;;13.58;10.30;;;;;;;13.37;22.13;102425.26;2114482;82;21094;-81
2022/03/21 12:12:03;;;;;;;17.17;11.73;;;;;;;13.23;22.43;102428.20;2100747;82;22004;-81
2022/03/21 12:15:17;;;;;;;15.25;10.80;;;;;;;13.27;21.92;102423.52;2115382;82;21518;-81
2022/03/21 12:18:19;;;;;;;18.73;12.05;;;;;;;13.22;22.41;102419.86;2120294;82;21658;-80
2022/03/21 12:21:21;;;;;;;18.48;11.20;;;;;;;13.35;22.55;102417.06;2112911;82;21090;-82
2022/03/21 12:24:23;;;;;;;17.32;11.75;;;;;;;13.32;22.79;102407.50;2103540;82;21561;-80
2022/03/21 12:27:47;;;;;;;21.57;12.88;;;;;;;13.33;22.00;102406.51;2104934;82;21009;-82
2022/03/21 12:30:49;;;;;;;14.45;10.60;;;;;;;13.32;22.69;102405.29;2107699;82;21712;-80
2022/03/21 12:33:51;;;;;;;17.65;10.68;;;;;;;13.26;22.63;102389.32;2119483;82;20987;-82
2022/03/21 12:36:53;;;;;;;17.55;11.12;;;;;;;13.35;22.24;102396.56;2101629;82;21117;-80
2022/03/21 12:39:55;;;;;;;18.87;11.80;;;;;;;13.40;22.03;102393.48;2114685;82;20958;-81
2022/03/21 12:42:58;;;;;;;20.00;12.90;;;;;;;13.39;22.09;102384.66;2110834;82;21066;-80
2022/03/21 12:46:11;;;;;;;16.30;11.88;;;;;;;13.47;22.28;102384.01;2110512;82;20973;-82
2022/03/21 12:49:13;;;;;;;18.45;10.58;;;;;;;13.49;21.77;102381.19;2111720;82;21073;-81
2022/03/21 12:52:30;;;;;;;21.20;11.78;;;;;;;13.50;21.19;102372.23;2108622;82;21026;-82
2022/03/21 12:55:31;;;;;;;17.90;12.20;;;;;;;13.52;21.57;102367.13;2097373;82;21042;-83
2022/03/21 12:58:32;;;;;;;19.12;12.58;;;;;;;13.55;22.00;102375.36;2115435;82;21014;-82
2022/03/21 13:01:34;;;;;;;18.98;12.23;;;;;;;13.55;21.89;102363.36;2108984;82;20995;-81
2022/03/21 13:11:25;;;;;;;20.05;13.32;;;;;;;13.32;21.89;102367.50;2110730;82;21334;-80
2022/03/21 13:14:26;;;;;;;20.68;12.60;;;;;;;13.30;21.85;102352.61;2106389;82;21632;-82
2022/03/21 13:17:51;;;;;;;20.00;12.53;;;;;;;13.40;21.68;102357.03;2114584;82;20979;-80
2022/03/21 13:20:55;;;;;;;15.50;11.57;;;;;;;13.34;22.15;102352.19;2111285;82;21050;-81
2022/03/21 13:23:56;;;;;;;19.95;12.70;;;;;;;13.36;21.20;102344.08;2096045;80;21028;-82
2022/03/21 13:26:58;;;;;;;23.15;12.28;;;;;;;13.33;21.41;102346.52;2144859;81;21096;-82
2022/03/21 13:29:59;;;;;;;15.90;11.20;;;;;;;13.37;22.02;102342.59;2143579;81;21691;-81
2022/03/21 13:33:01;;;;;;;19.52;12.35;;;;;;;13.29;21.40;102345.09;2145221;81;21784;-82
2022/03/21 13:36:07;;;;;;;24.35;12.90;;;;;;;13.26;21.37;102336.49;2143472;81;21061;-80
2022/03/21 13:39:23;;;;;;;17.95;11.75;;;;;;;13.14;21.99;102331.69;2152728;80;21488;-82
2022/03/21 13:42:24;;;;;;;20.25;11.78;;;;;;;13.29;22.02;102328.23;2145339;81;21050;-82
2022/03/21 13:45:27;;;;;;;17.27;11.80;;;;;;;13.36;22.03;102317.41;2138203;81;21065;-82
2022/03/21 13:48:38;;;;;;;17.45;12.13;;;;;;;13.30;21.66;102327.28;2145827;80;21044;-82
2022/03/21 13:51:44;;;;;;;19.20;11.05;;;;;;;13.20;21.69;102317.34;2149762;81;21790;-81
2022/03/21 13:54:54;;;;;;;17.25;12.07;;;;;;;13.19;21.66;102321.48;2141436;80;21010;-81
2022/03/21 13:58:02;;;;;;;17.50;12.18;;;;;;;13.19;21.51;102313.00;2149075;81;21088;-80
2022/03/21 14:01:21;;;;;;;16.87;11.12;;;;;;;13.20;20.80;102311.17;2142546;81;21629;-81
2022/03/21 14:04:25;;;;;;;17.75;11.88;;;;;;;13.25;21.99;102310.30;2143153;81;21046;-83
2022/03/21 14:07:33;;;;;;;17.17;12.28;;;;;;;13.22;21.19;102319.89;2142943;80;21338;-83
2022/03/21 14:10:44;;;;;;;16.40;11.57;;;;;;;13.22;21.74;102314.06;2142832;81;21035;-83
2022/03/21 14:13:46;;;;;;;;;;;;;;;13.28;21.12;102305.22;2153299;81;21458;-82
2022/03/21 14:16:48;;;;;;;15.50;10.75;;;;;;;13.27;21.65;102305.72;2146674;80;20144;-82
2022/03/21 14:19:49;;;;;;;18.67;11.73;;;;;;;13.20;21.09;102300.51;2144212;81;21036;-83
2022/03/21 14:22:50;;;;;;;16.65;11.48;;;;;;;13.21;21.87;102303.55;2147602;81;20996;-83
2022/03/21 14:29:13;;;;;;;17.10;9.68;;;;;;;13.28;21.98;102294.56;2144529;80;21089;-82